sensor_id;sensor_type;location;lat;lon;timestamp;temperature;humidity
11617;DHT22;5864;52.998;9.068;2022-12-22T00:02:15;6.80;99.90
11617;DHT22;5864;52.998;9.068;2022-12-22T00:05:01;6.70;99.90
11617;DHT22;5864;52.998;9.068;2022-12-22T00:07:46;6.70;99.90
11617;DHT22;5864;52.998;9.068;2022-12-22T00:10:31;6.80;99.90
11617;DHT22;5864;52.998;9.068;2022-12-22T00:13:17;6.80;99.90
11617;DHT22;5864;52.998;9.068;2022-12-22T00:16:02;6.80;99.90
11617;DHT22;5864;52.998;9.068;2022-12-22T00:18:47;6.80;99.90
11617;DHT22;5864;52.998;9.068;2022-12-22T00:21:32;6.80;99.90
11617;DHT22;5864;52.998;9.068;2022-12-22T00:24:17;6.80;99.90
11617;DHT22;5864;52.998;9.068;2022-12-22T00:27:02;6.80;99.90
11617;DHT22;5864;52.998;9.068;2022-12-22T00:29:48;6.80;99.90
11617;DHT22;5864;52.998;9.068;2022-12-22T00:32:35;6.80;99.90
11617;DHT22;5864;52.998;9.068;2022-12-22T00:35:23;6.90;99.90
11617;DHT22;5864;52.998;9.068;2022-12-22T00:38:17;6.90;99.90
11617;DHT22;5864;52.998;9.068;2022-12-22T00:41:02;6.90;99.90
11617;DHT22;5864;52.998;9.068;2022-12-22T00:43:47;6.90;99.90
11617;DHT22;5864;52.998;9.068;2022-12-22T00:46:37;6.90;99.90
11617;DHT22;5864;52.998;9.068;2022-12-22T00:49:23;6.90;99.90
11617;DHT22;5864;52.998;9.068;2022-12-22T00:52:09;7.00;99.90
11617;DHT22;5864;52.998;9.068;2022-12-22T00:54:55;7.00;99.90
11617;DHT22;5864;52.998;9.068;2022-12-22T00:57:40;5.10;99.90
11617;DHT22;5864;52.998;9.068;2022-12-22T01:00:26;7.00;99.90
11617;DHT22;5864;52.998;9.068;2022-12-22T01:03:13;7.00;99.90
11617;DHT22;5864;52.998;9.068;2022-12-22T01:06:00;7.00;99.90
11617;DHT22;5864;52.998;9.068;2022-12-22T01:08:45;7.00;99.90
11617;DHT22;5864;52.998;9.068;2022-12-22T01:11:32;7.00;99.90
11617;DHT22;5864;52.998;9.068;2022-12-22T01:14:17;7.00;99.90
11617;DHT22;5864;52.998;9.068;2022-12-22T01:17:02;7.00;99.90
11617;DHT22;5864;52.998;9.068;2022-12-22T01:19:48;7.10;99.90
11617;DHT22;5864;52.998;9.068;2022-12-22T01:22:33;7.10;99.90
11617;DHT22;5864;52.998;9.068;2022-12-22T01:25:18;7.10;99.90
11617;DHT22;5864;52.998;9.068;2022-12-22T01:28:04;7.10;99.90
11617;DHT22;5864;52.998;9.068;2022-12-22T01:30:49;7.10;99.90
11617;DHT22;5864;52.998;9.068;2022-12-22T01:33:34;7.10;99.90
11617;DHT22;5864;52.998;9.068;2022-12-22T01:36:20;7.10;99.90
11617;DHT22;5864;52.998;9.068;2022-12-22T01:39:05;7.10;99.90
11617;DHT22;5864;52.998;9.068;2022-12-22T01:41:50;7.00;99.90
11617;DHT22;5864;52.998;9.068;2022-12-22T01:44:34;7.00;99.90
11617;DHT22;5864;52.998;9.068;2022-12-22T01:47:33;7.00;99.90
11617;DHT22;5864;52.998;9.068;2022-12-22T01:50:24;7.00;99.90
11617;DHT22;5864;52.998;9.068;2022-12-22T01:53:15;7.00;99.90
11617;DHT22;5864;52.998;9.068;2022-12-22T01:56:01;7.00;99.90
11617;DHT22;5864;52.998;9.068;2022-12-22T01:58:49;7.00;99.90
11617;DHT22;5864;52.998;9.068;2022-12-22T02:01:35;7.10;99.90
11617;DHT22;5864;52.998;9.068;2022-12-22T02:04:22;7.10;99.90
11617;DHT22;5864;52.998;9.068;2022-12-22T02:07:25;7.10;99.90
11617;DHT22;5864;52.998;9.068;2022-12-22T02:10:41;7.10;99.90
11617;DHT22;5864;52.998;9.068;2022-12-22T02:13:34;7.10;99.90
11617;DHT22;5864;52.998;9.068;2022-12-22T02:16:26;7.10;99.90
11617;DHT22;5864;52.998;9.068;2022-12-22T02:19:22;7.10;99.90
11617;DHT22;5864;52.998;9.068;2022-12-22T02:22:20;7.20;99.90
11617;DHT22;5864;52.998;9.068;2022-12-22T02:25:13;7.20;99.90
11617;DHT22;5864;52.998;9.068;2022-12-22T02:28:01;7.20;99.90
11617;DHT22;5864;52.998;9.068;2022-12-22T02:30:47;7.20;99.90
11617;DHT22;5864;52.998;9.068;2022-12-22T02:33:32;7.20;99.90
11617;DHT22;5864;52.998;9.068;2022-12-22T02:36:20;7.20;99.90
11617;DHT22;5864;52.998;9.068;2022-12-22T02:39:14;7.20;99.90
11617;DHT22;5864;52.998;9.068;2022-12-22T02:42:09;7.20;99.90
11617;DHT22;5864;52.998;9.068;2022-12-22T02:45:06;7.20;99.90
11617;DHT22;5864;52.998;9.068;2022-12-22T02:48:00;7.20;99.90
11617;DHT22;5864;52.998;9.068;2022-12-22T02:50:51;7.20;99.90
11617;DHT22;5864;52.998;9.068;2022-12-22T02:53:37;7.20;99.90
11617;DHT22;5864;52.998;9.068;2022-12-22T02:56:26;7.20;99.90
11617;DHT22;5864;52.998;9.068;2022-12-22T02:59:11;7.20;99.90
11617;DHT22;5864;52.998;9.068;2022-12-22T03:01:57;7.20;99.90
11617;DHT22;5864;52.998;9.068;2022-12-22T03:04:42;7.10;99.90
11617;DHT22;5864;52.998;9.068;2022-12-22T03:07:27;7.10;99.90
11617;DHT22;5864;52.998;9.068;2022-12-22T03:10:12;7.20;99.90
11617;DHT22;5864;52.998;9.068;2022-12-22T03:12:58;7.20;99.90
11617;DHT22;5864;52.998;9.068;2022-12-22T03:15:43;7.20;99.90
11617;DHT22;5864;52.998;9.068;2022-12-22T03:18:29;7.30;99.90
11617;DHT22;5864;52.998;9.068;2022-12-22T03:21:14;7.20;99.90
11617;DHT22;5864;52.998;9.068;2022-12-22T03:23:59;7.30;99.90
11617;DHT22;5864;52.998;9.068;2022-12-22T03:26:44;7.30;99.90
11617;DHT22;5864;52.998;9.068;2022-12-22T03:29:14;7.30;99.90
11617;DHT22;5864;52.998;9.068;2022-12-22T03:31:41;7.30;99.90
11617;DHT22;5864;52.998;9.068;2022-12-22T03:34:10;7.30;99.90
11617;DHT22;5864;52.998;9.068;2022-12-22T03:36:38;7.30;99.90
11617;DHT22;5864;52.998;9.068;2022-12-22T03:39:06;7.30;99.90
11617;DHT22;5864;52.998;9.068;2022-12-22T03:41:34;7.30;99.90
11617;DHT22;5864;52.998;9.068;2022-12-22T03:44:19;7.30;99.90
11617;DHT22;5864;52.998;9.068;2022-12-22T03:47:04;7.30;99.90
11617;DHT22;5864;52.998;9.068;2022-12-22T03:49:33;7.30;99.90
11617;DHT22;5864;52.998;9.068;2022-12-22T03:52:01;7.30;99.90
11617;DHT22;5864;52.998;9.068;2022-12-22T03:54:28;7.30;99.90
11617;DHT22;5864;52.998;9.068;2022-12-22T03:56:56;7.30;99.90
11617;DHT22;5864;52.998;9.068;2022-12-22T03:59:23;7.30;99.90
11617;DHT22;5864;52.998;9.068;2022-12-22T04:01:52;7.30;99.90
11617;DHT22;5864;52.998;9.068;2022-12-22T04:04:21;7.30;99.90
11617;DHT22;5864;52.998;9.068;2022-12-22T04:06:51;7.30;99.90
11617;DHT22;5864;52.998;9.068;2022-12-22T04:09:18;7.30;99.90
11617;DHT22;5864;52.998;9.068;2022-12-22T04:11:47;7.30;99.90
11617;DHT22;5864;52.998;9.068;2022-12-22T04:14:31;7.30;99.90
11617;DHT22;5864;52.998;9.068;2022-12-22T04:16:59;7.20;99.90
11617;DHT22;5864;52.998;9.068;2022-12-22T04:19:26;7.20;99.90
11617;DHT22;5864;52.998;9.068;2022-12-22T04:21:55;7.20;99.90
11617;DHT22;5864;52.998;9.068;2022-12-22T04:24:23;7.30;99.90
11617;DHT22;5864;52.998;9.068;2022-12-22T04:26:51;7.20;99.90
11617;DHT22;5864;52.998;9.068;2022-12-22T04:29:19;7.20;99.90
11617;DHT22;5864;52.998;9.068;2022-12-22T04:31:47;7.20;99.90
11617;DHT22;5864;52.998;9.068;2022-12-22T04:34:14;7.20;99.90
11617;DHT22;5864;52.998;9.068;2022-12-22T04:36:42;7.10;99.90
11617;DHT22;5864;52.998;9.068;2022-12-22T04:39:10;7.20;99.90
11617;DHT22;5864;52.998;9.068;2022-12-22T04:41:38;7.20;99.90
11617;DHT22;5864;52.998;9.068;2022-12-22T04:44:06;7.10;99.90
11617;DHT22;5864;52.998;9.068;2022-12-22T04:46:33;7.10;99.90
11617;DHT22;5864;52.998;9.068;2022-12-22T04:49:01;7.00;99.90
11617;DHT22;5864;52.998;9.068;2022-12-22T04:51:28;7.00;99.90
11617;DHT22;5864;52.998;9.068;2022-12-22T04:53:56;7.00;99.90
11617;DHT22;5864;52.998;9.068;2022-12-22T04:56:24;7.00;99.90
11617;DHT22;5864;52.998;9.068;2022-12-22T04:58:52;7.00;99.90
11617;DHT22;5864;52.998;9.068;2022-12-22T05:01:19;7.00;99.90
11617;DHT22;5864;52.998;9.068;2022-12-22T05:03:47;7.00;99.90
11617;DHT22;5864;52.998;9.068;2022-12-22T05:06:14;7.00;99.90
11617;DHT22;5864;52.998;9.068;2022-12-22T05:08:42;7.00;99.90
11617;DHT22;5864;52.998;9.068;2022-12-22T05:11:10;7.00;99.90
11617;DHT22;5864;52.998;9.068;2022-12-22T05:13:39;7.00;99.90
11617;DHT22;5864;52.998;9.068;2022-12-22T05:16:07;7.00;99.90
11617;DHT22;5864;52.998;9.068;2022-12-22T05:18:36;7.00;99.90
11617;DHT22;5864;52.998;9.068;2022-12-22T05:21:05;7.00;99.90
11617;DHT22;5864;52.998;9.068;2022-12-22T05:23:33;7.00;99.90
11617;DHT22;5864;52.998;9.068;2022-12-22T05:26:00;7.00;99.90
11617;DHT22;5864;52.998;9.068;2022-12-22T05:28:28;7.00;99.90
11617;DHT22;5864;52.998;9.068;2022-12-22T05:31:02;7.00;99.90
11617;DHT22;5864;52.998;9.068;2022-12-22T05:33:30;7.00;99.90
11617;DHT22;5864;52.998;9.068;2022-12-22T05:35:58;7.10;99.90
11617;DHT22;5864;52.998;9.068;2022-12-22T05:38:25;7.10;99.90
11617;DHT22;5864;52.998;9.068;2022-12-22T05:40:53;7.10;99.90
11617;DHT22;5864;52.998;9.068;2022-12-22T05:43:21;7.10;99.90
11617;DHT22;5864;52.998;9.068;2022-12-22T05:45:48;7.10;99.90
11617;DHT22;5864;52.998;9.068;2022-12-22T05:48:18;7.10;99.90
11617;DHT22;5864;52.998;9.068;2022-12-22T05:50:45;7.00;99.90
11617;DHT22;5864;52.998;9.068;2022-12-22T05:53:12;7.00;99.90
11617;DHT22;5864;52.998;9.068;2022-12-22T05:55:43;7.10;99.90
11617;DHT22;5864;52.998;9.068;2022-12-22T05:58:11;7.10;99.90
11617;DHT22;5864;52.998;9.068;2022-12-22T06:00:38;7.10;99.90
11617;DHT22;5864;52.998;9.068;2022-12-22T06:03:06;7.10;99.90
11617;DHT22;5864;52.998;9.068;2022-12-22T06:05:35;7.10;99.90
11617;DHT22;5864;52.998;9.068;2022-12-22T06:08:02;7.10;99.90
11617;DHT22;5864;52.998;9.068;2022-12-22T06:10:30;7.10;99.90
11617;DHT22;5864;52.998;9.068;2022-12-22T06:12:57;7.10;99.90
11617;DHT22;5864;52.998;9.068;2022-12-22T06:15:25;7.10;99.90
11617;DHT22;5864;52.998;9.068;2022-12-22T06:17:52;7.10;99.90
11617;DHT22;5864;52.998;9.068;2022-12-22T06:20:19;7.20;99.90
11617;DHT22;5864;52.998;9.068;2022-12-22T06:22:48;7.20;99.90
11617;DHT22;5864;52.998;9.068;2022-12-22T06:25:16;7.20;99.90
11617;DHT22;5864;52.998;9.068;2022-12-22T06:27:44;7.20;99.90
11617;DHT22;5864;52.998;9.068;2022-12-22T06:30:12;7.20;99.90
11617;DHT22;5864;52.998;9.068;2022-12-22T06:32:39;7.20;99.90
11617;DHT22;5864;52.998;9.068;2022-12-22T06:35:08;7.20;99.90
11617;DHT22;5864;52.998;9.068;2022-12-22T06:37:35;7.20;99.90
11617;DHT22;5864;52.998;9.068;2022-12-22T06:40:05;7.20;99.90
11617;DHT22;5864;52.998;9.068;2022-12-22T06:42:33;7.30;99.90
11617;DHT22;5864;52.998;9.068;2022-12-22T06:45:18;7.20;99.90
11617;DHT22;5864;52.998;9.068;2022-12-22T06:47:53;7.20;99.90
11617;DHT22;5864;52.998;9.068;2022-12-22T06:50:32;7.20;99.90
11617;DHT22;5864;52.998;9.068;2022-12-22T06:53:03;7.30;99.90
11617;DHT22;5864;52.998;9.068;2022-12-22T06:55:32;7.20;99.90
11617;DHT22;5864;52.998;9.068;2022-12-22T06:58:00;7.30;99.90
11617;DHT22;5864;52.998;9.068;2022-12-22T07:00:27;7.30;99.90
11617;DHT22;5864;52.998;9.068;2022-12-22T07:02:55;7.30;99.90
11617;DHT22;5864;52.998;9.068;2022-12-22T07:05:23;6.50;99.90
11617;DHT22;5864;52.998;9.068;2022-12-22T07:07:50;7.20;99.90
11617;DHT22;5864;52.998;9.068;2022-12-22T07:10:18;7.20;99.90
11617;DHT22;5864;52.998;9.068;2022-12-22T07:13:08;7.20;99.90
11617;DHT22;5864;52.998;9.068;2022-12-22T07:15:45;7.20;99.90
11617;DHT22;5864;52.998;9.068;2022-12-22T07:18:13;7.20;99.90
11617;DHT22;5864;52.998;9.068;2022-12-22T07:20:40;7.20;99.90
11617;DHT22;5864;52.998;9.068;2022-12-22T07:23:07;7.30;99.90
11617;DHT22;5864;52.998;9.068;2022-12-22T07:25:38;7.30;99.90
11617;DHT22;5864;52.998;9.068;2022-12-22T07:28:09;7.30;99.90
11617;DHT22;5864;52.998;9.068;2022-12-22T07:30:37;7.30;99.90
11617;DHT22;5864;52.998;9.068;2022-12-22T07:33:04;7.30;99.90
11617;DHT22;5864;52.998;9.068;2022-12-22T07:35:32;7.30;99.90
11617;DHT22;5864;52.998;9.068;2022-12-22T07:38:00;7.30;99.90
11617;DHT22;5864;52.998;9.068;2022-12-22T07:40:27;7.30;99.90
11617;DHT22;5864;52.998;9.068;2022-12-22T07:42:55;7.30;99.90
11617;DHT22;5864;52.998;9.068;2022-12-22T07:45:24;7.30;99.90
11617;DHT22;5864;52.998;9.068;2022-12-22T07:47:57;7.30;99.90
11617;DHT22;5864;52.998;9.068;2022-12-22T07:50:24;7.30;99.90
11617;DHT22;5864;52.998;9.068;2022-12-22T07:52:53;7.40;99.90
11617;DHT22;5864;52.998;9.068;2022-12-22T07:55:21;7.40;99.90
11617;DHT22;5864;52.998;9.068;2022-12-22T07:57:49;7.40;99.90
11617;DHT22;5864;52.998;9.068;2022-12-22T08:00:18;7.40;99.90
11617;DHT22;5864;52.998;9.068;2022-12-22T08:02:49;7.40;99.90
11617;DHT22;5864;52.998;9.068;2022-12-22T08:05:21;7.50;99.90
11617;DHT22;5864;52.998;9.068;2022-12-22T08:07:49;7.40;99.90
11617;DHT22;5864;52.998;9.068;2022-12-22T08:10:17;7.50;99.90
11617;DHT22;5864;52.998;9.068;2022-12-22T08:12:46;7.50;99.90
11617;DHT22;5864;52.998;9.068;2022-12-22T08:15:13;7.50;99.90
11617;DHT22;5864;52.998;9.068;2022-12-22T08:17:41;7.50;99.90
11617;DHT22;5864;52.998;9.068;2022-12-22T08:20:11;7.50;99.90
11617;DHT22;5864;52.998;9.068;2022-12-22T08:22:38;7.60;99.90
11617;DHT22;5864;52.998;9.068;2022-12-22T08:25:06;7.60;99.90
11617;DHT22;5864;52.998;9.068;2022-12-22T08:27:36;7.60;99.90
11617;DHT22;5864;52.998;9.068;2022-12-22T08:30:07;7.60;99.90
11617;DHT22;5864;52.998;9.068;2022-12-22T08:32:36;7.60;99.90
11617;DHT22;5864;52.998;9.068;2022-12-22T08:35:04;7.60;99.90
11617;DHT22;5864;52.998;9.068;2022-12-22T08:37:35;7.60;99.90
11617;DHT22;5864;52.998;9.068;2022-12-22T08:40:09;7.60;99.90
11617;DHT22;5864;52.998;9.068;2022-12-22T08:42:37;7.60;99.90
11617;DHT22;5864;52.998;9.068;2022-12-22T08:45:06;7.60;99.90
11617;DHT22;5864;52.998;9.068;2022-12-22T08:47:34;7.60;99.90
11617;DHT22;5864;52.998;9.068;2022-12-22T08:50:01;7.70;99.90
11617;DHT22;5864;52.998;9.068;2022-12-22T08:52:29;7.70;99.90
11617;DHT22;5864;52.998;9.068;2022-12-22T08:54:59;7.70;99.90
11617;DHT22;5864;52.998;9.068;2022-12-22T08:57:27;7.70;99.90
11617;DHT22;5864;52.998;9.068;2022-12-22T08:59:54;7.80;99.90
11617;DHT22;5864;52.998;9.068;2022-12-22T09:02:22;7.80;99.90
11617;DHT22;5864;52.998;9.068;2022-12-22T09:04:49;7.80;99.90
11617;DHT22;5864;52.998;9.068;2022-12-22T09:07:17;7.90;99.90
11617;DHT22;5864;52.998;9.068;2022-12-22T09:09:44;7.90;99.90
11617;DHT22;5864;52.998;9.068;2022-12-22T09:12:13;7.90;99.90
11617;DHT22;5864;52.998;9.068;2022-12-22T09:14:41;7.90;99.90
11617;DHT22;5864;52.998;9.068;2022-12-22T09:17:08;7.90;99.90
11617;DHT22;5864;52.998;9.068;2022-12-22T09:19:36;7.90;99.90
11617;DHT22;5864;52.998;9.068;2022-12-22T09:22:03;7.90;99.90
11617;DHT22;5864;52.998;9.068;2022-12-22T09:24:31;7.90;99.90
11617;DHT22;5864;52.998;9.068;2022-12-22T09:26:58;7.90;99.90
11617;DHT22;5864;52.998;9.068;2022-12-22T09:29:29;7.90;99.90
11617;DHT22;5864;52.998;9.068;2022-12-22T09:31:57;7.90;99.90
11617;DHT22;5864;52.998;9.068;2022-12-22T09:34:24;8.00;99.90
11617;DHT22;5864;52.998;9.068;2022-12-22T09:36:51;8.00;99.90
11617;DHT22;5864;52.998;9.068;2022-12-22T09:39:22;8.00;99.90
11617;DHT22;5864;52.998;9.068;2022-12-22T09:41:51;8.00;99.90
11617;DHT22;5864;52.998;9.068;2022-12-22T09:44:23;8.10;99.90
11617;DHT22;5864;52.998;9.068;2022-12-22T09:46:54;8.10;99.90
11617;DHT22;5864;52.998;9.068;2022-12-22T09:49:23;8.20;99.90
11617;DHT22;5864;52.998;9.068;2022-12-22T09:51:55;8.20;99.90
11617;DHT22;5864;52.998;9.068;2022-12-22T09:54:26;8.30;99.90
11617;DHT22;5864;52.998;9.068;2022-12-22T09:56:54;8.30;99.90
11617;DHT22;5864;52.998;9.068;2022-12-22T09:59:24;8.40;99.90
11617;DHT22;5864;52.998;9.068;2022-12-22T10:02:04;8.40;99.90
11617;DHT22;5864;52.998;9.068;2022-12-22T10:04:52;8.40;99.90
11617;DHT22;5864;52.998;9.068;2022-12-22T10:07:28;8.50;99.90
11617;DHT22;5864;52.998;9.068;2022-12-22T10:09:56;8.50;99.90
11617;DHT22;5864;52.998;9.068;2022-12-22T10:12:25;8.50;99.90
11617;DHT22;5864;52.998;9.068;2022-12-22T10:14:53;10.10;99.90
11617;DHT22;5864;52.998;9.068;2022-12-22T10:17:27;8.50;99.90
11617;DHT22;5864;52.998;9.068;2022-12-22T10:20:07;8.60;99.90
11617;DHT22;5864;52.998;9.068;2022-12-22T10:22:44;8.60;99.90
11617;DHT22;5864;52.998;9.068;2022-12-22T10:25:29;8.70;99.90
11617;DHT22;5864;52.998;9.068;2022-12-22T10:27:58;8.80;99.90
11617;DHT22;5864;52.998;9.068;2022-12-22T10:30:28;8.90;99.90
11617;DHT22;5864;52.998;9.068;2022-12-22T10:33:06;8.90;99.90
11617;DHT22;5864;52.998;9.068;2022-12-22T10:35:43;9.00;99.90
11617;DHT22;5864;52.998;9.068;2022-12-22T10:38:16;9.10;99.90
11617;DHT22;5864;52.998;9.068;2022-12-22T10:40:49;9.10;99.90
11617;DHT22;5864;52.998;9.068;2022-12-22T10:43:19;9.10;99.90
11617;DHT22;5864;52.998;9.068;2022-12-22T10:45:48;9.10;99.90
11617;DHT22;5864;52.998;9.068;2022-12-22T10:48:21;9.10;99.90
11617;DHT22;5864;52.998;9.068;2022-12-22T10:50:52;9.00;99.90
11617;DHT22;5864;52.998;9.068;2022-12-22T10:53:20;9.00;99.90
11617;DHT22;5864;52.998;9.068;2022-12-22T10:56:03;9.00;99.90
11617;DHT22;5864;52.998;9.068;2022-12-22T10:58:46;9.00;99.90
11617;DHT22;5864;52.998;9.068;2022-12-22T11:01:23;9.00;99.90
11617;DHT22;5864;52.998;9.068;2022-12-22T11:03:52;8.90;99.90
11617;DHT22;5864;52.998;9.068;2022-12-22T11:06:19;8.90;99.90
11617;DHT22;5864;52.998;9.068;2022-12-22T11:08:47;8.90;99.90
11617;DHT22;5864;52.998;9.068;2022-12-22T11:11:22;8.90;99.90
11617;DHT22;5864;52.998;9.068;2022-12-22T11:14:00;9.00;99.90
11617;DHT22;5864;52.998;9.068;2022-12-22T11:16:36;9.00;99.90
11617;DHT22;5864;52.998;9.068;2022-12-22T11:19:23;9.10;99.90
11617;DHT22;5864;52.998;9.068;2022-12-22T11:21:59;9.10;99.90
11617;DHT22;5864;52.998;9.068;2022-12-22T11:24:38;9.30;99.90
11617;DHT22;5864;52.998;9.068;2022-12-22T11:27:20;9.40;99.90
11617;DHT22;5864;52.998;9.068;2022-12-22T11:30:05;9.50;99.90
11617;DHT22;5864;52.998;9.068;2022-12-22T11:33:00;9.50;99.90
11617;DHT22;5864;52.998;9.068;2022-12-22T11:35:44;9.50;99.90
11617;DHT22;5864;52.998;9.068;2022-12-22T11:38:21;9.60;99.90
11617;DHT22;5864;52.998;9.068;2022-12-22T11:40:55;9.60;99.90
11617;DHT22;5864;52.998;9.068;2022-12-22T11:43:27;9.60;99.90
11617;DHT22;5864;52.998;9.068;2022-12-22T11:46:14;9.60;99.90
11617;DHT22;5864;52.998;9.068;2022-12-22T11:52:02;9.50;99.90
11617;DHT22;5864;52.998;9.068;2022-12-22T11:54:41;9.40;99.90
11617;DHT22;5864;52.998;9.068;2022-12-22T11:57:21;9.30;99.90
11617;DHT22;5864;52.998;9.068;2022-12-22T11:59:57;9.30;99.90
11617;DHT22;5864;52.998;9.068;2022-12-22T12:03:02;9.30;99.90
11617;DHT22;5864;52.998;9.068;2022-12-22T12:08:39;9.20;99.90
11617;DHT22;5864;52.998;9.068;2022-12-22T12:11:14;9.10;99.90
11617;DHT22;5864;52.998;9.068;2022-12-22T12:13:52;9.10;99.90
11617;DHT22;5864;52.998;9.068;2022-12-22T12:16:29;9.10;99.90
11617;DHT22;5864;52.998;9.068;2022-12-22T12:21:58;9.00;99.90
11617;DHT22;5864;52.998;9.068;2022-12-22T12:24:50;9.00;99.90
11617;DHT22;5864;52.998;9.068;2022-12-22T12:27:30;9.00;99.90
11617;DHT22;5864;52.998;9.068;2022-12-22T12:30:06;9.00;99.90
11617;DHT22;5864;52.998;9.068;2022-12-22T12:32:40;8.90;99.90
11617;DHT22;5864;52.998;9.068;2022-12-22T12:35:30;8.90;99.90
11617;DHT22;5864;52.998;9.068;2022-12-22T12:38:04;8.90;99.90
11617;DHT22;5864;52.998;9.068;2022-12-22T12:40:45;8.90;99.90
11617;DHT22;5864;52.998;9.068;2022-12-22T12:43:16;8.80;99.90
11617;DHT22;5864;52.998;9.068;2022-12-22T12:45:46;8.90;99.90
11617;DHT22;5864;52.998;9.068;2022-12-22T12:48:37;8.90;99.90
11617;DHT22;5864;52.998;9.068;2022-12-22T12:54:33;8.90;99.90
11617;DHT22;5864;52.998;9.068;2022-12-22T12:57:29;8.90;99.90
11617;DHT22;5864;52.998;9.068;2022-12-22T12:59:57;8.90;99.90
11617;DHT22;5864;52.998;9.068;2022-12-22T13:02:36;8.90;99.90
11617;DHT22;5864;52.998;9.068;2022-12-22T13:08:11;8.80;99.90
11617;DHT22;5864;52.998;9.068;2022-12-22T13:10:42;8.70;99.90
11617;DHT22;5864;52.998;9.068;2022-12-22T13:16:27;8.70;99.90
11617;DHT22;5864;52.998;9.068;2022-12-22T13:18:56;8.70;99.90
11617;DHT22;5864;52.998;9.068;2022-12-22T13:21:28;8.60;99.90
11617;DHT22;5864;52.998;9.068;2022-12-22T13:24:03;8.60;99.90
11617;DHT22;5864;52.998;9.068;2022-12-22T13:26:33;8.60;99.90
11617;DHT22;5864;52.998;9.068;2022-12-22T13:29:08;8.60;99.90
11617;DHT22;5864;52.998;9.068;2022-12-22T13:31:42;8.70;99.90
11617;DHT22;5864;52.998;9.068;2022-12-22T13:34:29;8.70;99.90
11617;DHT22;5864;52.998;9.068;2022-12-22T13:37:01;8.70;99.90
11617;DHT22;5864;52.998;9.068;2022-12-22T13:39:30;8.80;99.90
11617;DHT22;5864;52.998;9.068;2022-12-22T13:41:57;8.90;99.90
11617;DHT22;5864;52.998;9.068;2022-12-22T13:44:28;8.90;99.90
11617;DHT22;5864;52.998;9.068;2022-12-22T13:47:01;8.90;99.90
11617;DHT22;5864;52.998;9.068;2022-12-22T13:49:31;8.90;99.90
11617;DHT22;5864;52.998;9.068;2022-12-22T13:52:08;8.90;99.90
11617;DHT22;5864;52.998;9.068;2022-12-22T13:54:42;8.80;99.90
11617;DHT22;5864;52.998;9.068;2022-12-22T13:57:16;8.90;99.90
11617;DHT22;5864;52.998;9.068;2022-12-22T13:59:48;8.70;99.90
11617;DHT22;5864;52.998;9.068;2022-12-22T14:02:18;8.60;99.90
11617;DHT22;5864;52.998;9.068;2022-12-22T14:05:02;8.60;99.90
11617;DHT22;5864;52.998;9.068;2022-12-22T14:07:30;8.60;99.90
11617;DHT22;5864;52.998;9.068;2022-12-22T14:09:58;8.60;99.90
11617;DHT22;5864;52.998;9.068;2022-12-22T14:12:27;8.60;99.90
11617;DHT22;5864;52.998;9.068;2022-12-22T14:14:58;8.50;99.90
11617;DHT22;5864;52.998;9.068;2022-12-22T14:17:29;8.50;99.90
11617;DHT22;5864;52.998;9.068;2022-12-22T14:19:59;8.40;99.90
11617;DHT22;5864;52.998;9.068;2022-12-22T14:22:29;8.40;99.90
11617;DHT22;5864;52.998;9.068;2022-12-22T14:24:58;8.40;99.90
11617;DHT22;5864;52.998;9.068;2022-12-22T14:27:31;8.40;99.90
11617;DHT22;5864;52.998;9.068;2022-12-22T14:30:03;8.30;99.90
11617;DHT22;5864;52.998;9.068;2022-12-22T14:32:37;8.20;99.90
11617;DHT22;5864;52.998;9.068;2022-12-22T14:35:20;8.20;99.90
11617;DHT22;5864;52.998;9.068;2022-12-22T14:37:48;8.10;99.90
11617;DHT22;5864;52.998;9.068;2022-12-22T14:40:28;8.10;99.90
11617;DHT22;5864;52.998;9.068;2022-12-22T14:42:57;8.90;99.90
11617;DHT22;5864;52.998;9.068;2022-12-22T14:45:26;8.00;99.90
11617;DHT22;5864;52.998;9.068;2022-12-22T14:47:54;7.90;99.90
11617;DHT22;5864;52.998;9.068;2022-12-22T14:50:23;7.80;99.90
11617;DHT22;5864;52.998;9.068;2022-12-22T14:52:52;7.70;99.90
11617;DHT22;5864;52.998;9.068;2022-12-22T14:55:25;7.60;99.90
11617;DHT22;5864;52.998;9.068;2022-12-22T14:57:55;7.60;99.90
11617;DHT22;5864;52.998;9.068;2022-12-22T15:00:30;7.50;99.90
11617;DHT22;5864;52.998;9.068;2022-12-22T15:02:59;7.40;99.90
11617;DHT22;5864;52.998;9.068;2022-12-22T15:05:29;7.30;99.90
11617;DHT22;5864;52.998;9.068;2022-12-22T15:07:58;7.30;99.90
11617;DHT22;5864;52.998;9.068;2022-12-22T15:10:27;7.20;99.90
11617;DHT22;5864;52.998;9.068;2022-12-22T15:12:58;7.20;99.90
11617;DHT22;5864;52.998;9.068;2022-12-22T15:15:32;7.10;99.90
11617;DHT22;5864;52.998;9.068;2022-12-22T15:18:01;7.10;99.90
11617;DHT22;5864;52.998;9.068;2022-12-22T15:20:29;7.10;99.90
11617;DHT22;5864;52.998;9.068;2022-12-22T15:22:57;7.00;99.90
11617;DHT22;5864;52.998;9.068;2022-12-22T15:25:25;7.00;99.90
11617;DHT22;5864;52.998;9.068;2022-12-22T15:27:52;6.90;99.90
11617;DHT22;5864;52.998;9.068;2022-12-22T15:30:21;6.90;99.90
11617;DHT22;5864;52.998;9.068;2022-12-22T15:32:50;6.80;99.90
11617;DHT22;5864;52.998;9.068;2022-12-22T15:35:20;6.70;99.90
11617;DHT22;5864;52.998;9.068;2022-12-22T15:37:50;6.70;99.90
11617;DHT22;5864;52.998;9.068;2022-12-22T15:40:19;6.70;99.90
11617;DHT22;5864;52.998;9.068;2022-12-22T15:42:48;6.60;99.90
11617;DHT22;5864;52.998;9.068;2022-12-22T15:45:16;6.60;99.90
11617;DHT22;5864;52.998;9.068;2022-12-22T15:47:46;6.60;99.90
11617;DHT22;5864;52.998;9.068;2022-12-22T15:50:19;6.70;99.90
11617;DHT22;5864;52.998;9.068;2022-12-22T15:52:50;6.70;99.90
11617;DHT22;5864;52.998;9.068;2022-12-22T15:55:19;6.60;99.90
11617;DHT22;5864;52.998;9.068;2022-12-22T15:57:48;6.60;99.90
11617;DHT22;5864;52.998;9.068;2022-12-22T16:00:17;6.70;99.90
11617;DHT22;5864;52.998;9.068;2022-12-22T16:02:46;6.70;99.90
11617;DHT22;5864;52.998;9.068;2022-12-22T16:05:14;6.70;99.90
11617;DHT22;5864;52.998;9.068;2022-12-22T16:07:45;6.70;99.90
11617;DHT22;5864;52.998;9.068;2022-12-22T16:10:21;6.80;99.90
11617;DHT22;5864;52.998;9.068;2022-12-22T16:12:49;6.80;99.90
11617;DHT22;5864;52.998;9.068;2022-12-22T16:15:26;6.90;99.90
11617;DHT22;5864;52.998;9.068;2022-12-22T16:17:54;6.90;99.90
11617;DHT22;5864;52.998;9.068;2022-12-22T16:20:21;7.00;99.90
11617;DHT22;5864;52.998;9.068;2022-12-22T16:22:51;7.00;99.90
11617;DHT22;5864;52.998;9.068;2022-12-22T16:25:20;7.00;99.90
11617;DHT22;5864;52.998;9.068;2022-12-22T16:27:49;7.00;99.90
11617;DHT22;5864;52.998;9.068;2022-12-22T16:30:20;7.10;99.90
11617;DHT22;5864;52.998;9.068;2022-12-22T16:32:48;7.10;99.90
11617;DHT22;5864;52.998;9.068;2022-12-22T16:35:18;7.10;99.90
11617;DHT22;5864;52.998;9.068;2022-12-22T16:37:46;7.10;99.90
11617;DHT22;5864;52.998;9.068;2022-12-22T16:40:16;7.10;99.90
11617;DHT22;5864;52.998;9.068;2022-12-22T16:42:48;7.10;99.90
11617;DHT22;5864;52.998;9.068;2022-12-22T16:45:19;7.10;99.90
11617;DHT22;5864;52.998;9.068;2022-12-22T16:47:49;7.10;99.90
11617;DHT22;5864;52.998;9.068;2022-12-22T16:50:19;7.10;99.90
11617;DHT22;5864;52.998;9.068;2022-12-22T16:52:48;7.10;99.90
11617;DHT22;5864;52.998;9.068;2022-12-22T16:55:19;7.10;99.90
11617;DHT22;5864;52.998;9.068;2022-12-22T16:57:47;7.10;99.90
11617;DHT22;5864;52.998;9.068;2022-12-22T17:00:17;7.10;99.90
11617;DHT22;5864;52.998;9.068;2022-12-22T17:02:47;7.10;99.90
11617;DHT22;5864;52.998;9.068;2022-12-22T17:05:23;7.10;99.90
11617;DHT22;5864;52.998;9.068;2022-12-22T17:07:52;7.10;99.90